createdAt,value
2018-12-18T00:03:57.376Z,6.60
2018-12-18T00:09:07.577Z,7.00
2018-12-18T00:14:17.110Z,6.50
2018-12-18T00:19:26.507Z,6.40
2018-12-18T00:24:36.022Z,6.60
2018-12-18T00:29:45.557Z,6.70
2018-12-18T00:34:54.902Z,6.70
2018-12-18T00:40:05.691Z,6.60
2018-12-18T00:45:15.297Z,6.50
2018-12-18T00:50:24.783Z,6.60
2018-12-18T00:55:34.221Z,6.60
2018-12-18T01:00:43.621Z,6.50
2018-12-18T01:05:52.971Z,6.60
2018-12-18T01:11:03.430Z,6.50
2018-12-18T01:16:12.874Z,6.40
2018-12-18T01:21:22.273Z,6.30
2018-12-18T01:26:31.611Z,6.20
2018-12-18T01:31:40.941Z,6.20
2018-12-18T01:36:50.325Z,6.20
2018-12-18T01:42:03.858Z,6.20
2018-12-18T01:47:13.317Z,6.30
2018-12-18T01:52:23.194Z,6.20
2018-12-18T01:57:32.554Z,6.20
2018-12-18T02:02:41.924Z,6.10
2018-12-18T02:07:51.261Z,6.00
2018-12-18T02:13:00.677Z,6.10
2018-12-18T02:18:10.073Z,6.00
2018-12-18T02:23:19.466Z,5.90
2018-12-18T02:28:28.856Z,5.90
2018-12-18T02:33:38.614Z,6.00
2018-12-18T02:38:48.206Z,6.10
2018-12-18T02:43:57.601Z,6.00
2018-12-18T02:49:06.921Z,5.80
2018-12-18T02:54:16.618Z,5.80
2018-12-18T02:59:27.075Z,5.80
2018-12-18T03:04:36.493Z,5.90
2018-12-18T03:09:46.021Z,5.80
2018-12-18T03:14:55.527Z,5.80
2018-12-18T03:20:05.197Z,5.70
2018-12-18T03:25:14.730Z,5.80
2018-12-18T03:30:24.082Z,5.60
2018-12-18T03:35:33.454Z,5.60
2018-12-18T03:40:42.978Z,5.60
2018-12-18T03:45:53.134Z,5.60
2018-12-18T03:51:02.814Z,5.70
2018-12-18T03:56:12.341Z,5.50
2018-12-18T04:01:21.750Z,5.70
2018-12-18T04:06:31.482Z,5.50
2018-12-18T04:11:46.489Z,5.50
2018-12-18T04:16:56.103Z,5.60
2018-12-18T04:22:05.470Z,5.30
2018-12-18T04:27:14.984Z,5.60
2018-12-18T04:32:24.574Z,5.30
2018-12-18T04:37:34.089Z,5.10
2018-12-18T04:42:43.456Z,5.10
2018-12-18T04:47:52.825Z,5.10
2018-12-18T04:53:02.346Z,5.00
2018-12-18T04:58:11.710Z,4.90
2018-12-18T05:03:21.182Z,4.90
2018-12-18T05:08:30.555Z,4.90
2018-12-18T05:13:39.902Z,4.80
2018-12-18T05:18:49.391Z,4.80
2018-12-18T05:23:58.751Z,4.70
2018-12-18T05:29:08.088Z,4.60
2018-12-18T05:34:17.709Z,4.70
2018-12-18T05:39:27.232Z,4.50
2018-12-18T05:44:36.573Z,4.60
2018-12-18T05:49:45.956Z,4.50
2018-12-18T05:54:55.285Z,4.50
2018-12-18T06:00:05.005Z,4.40
2018-12-18T06:05:14.802Z,4.40
2018-12-18T06:10:24.282Z,4.40
2018-12-18T06:15:33.672Z,4.50
2018-12-18T06:20:43.229Z,4.40
2018-12-18T06:25:52.798Z,4.40
2018-12-18T06:31:02.214Z,4.60
2018-12-18T06:36:11.614Z,4.50
2018-12-18T06:41:21.198Z,4.50
2018-12-18T06:46:30.847Z,4.60
2018-12-18T06:51:40.431Z,4.60
2018-12-18T06:56:50.704Z,4.60
2018-12-18T07:02:00.032Z,4.70
2018-12-18T07:07:09.368Z,4.60
2018-12-18T07:12:18.685Z,4.60
2018-12-18T07:17:28.049Z,4.60
2018-12-18T07:22:37.423Z,4.70
2018-12-18T07:27:46.827Z,4.70
2018-12-18T07:32:56.336Z,4.80
2018-12-18T07:38:05.824Z,4.80
2018-12-18T07:43:15.270Z,4.90
2018-12-18T07:48:24.734Z,5.00
2018-12-18T07:53:35.370Z,5.10
2018-12-18T07:58:45.069Z,5.10
2018-12-18T08:03:54.854Z,5.20
2018-12-18T08:09:08.037Z,5.20
2018-12-18T08:14:17.501Z,5.30
2018-12-18T08:19:27.005Z,5.40
2018-12-18T08:24:36.476Z,5.50
2018-12-18T08:29:45.882Z,5.50
2018-12-18T08:34:55.445Z,5.70
2018-12-18T08:40:05.832Z,6.30
2018-12-18T08:45:15.322Z,7.30
2018-12-18T08:50:24.750Z,8.00
2018-12-18T08:55:34.268Z,8.90
2018-12-18T09:00:43.812Z,9.60
2018-12-18T09:05:53.196Z,9.70
2018-12-18T09:11:02.592Z,9.80
2018-12-18T09:16:17.523Z,9.10
2018-12-18T09:21:27.080Z,8.80
2018-12-18T09:26:36.661Z,9.50
2018-12-18T09:31:46.287Z,9.80
2018-12-18T09:36:56.002Z,10.40
2018-12-18T09:42:10.735Z,10.80
2018-12-18T09:47:20.143Z,10.50
2018-12-18T09:52:29.505Z,10.50
2018-12-18T09:58:11.801Z,10.90
2018-12-18T10:03:21.167Z,11.20
2018-12-18T10:08:30.553Z,12.60
2018-12-18T10:13:40.183Z,12.70
2018-12-18T10:18:49.793Z,11.90
2018-12-18T10:24:00.356Z,11.70
2018-12-18T10:29:09.945Z,12.00
2018-12-18T10:34:19.322Z,11.00
2018-12-18T10:39:28.750Z,10.50
2018-12-18T10:44:38.338Z,11.80
2018-12-18T10:49:47.830Z,10.90
2018-12-18T10:54:57.269Z,10.60
2018-12-18T11:00:13.002Z,10.50
2018-12-18T11:05:22.493Z,10.30
2018-12-18T11:10:31.860Z,10.20
2018-12-18T11:15:41.533Z,10.50
2018-12-18T11:20:51.225Z,9.90
2018-12-18T11:26:00.728Z,9.60
2018-12-18T11:31:10.173Z,10.00
2018-12-18T11:36:19.649Z,10.00
2018-12-18T11:41:29.142Z,9.90
2018-12-18T11:46:38.531Z,10.00
2018-12-18T11:51:48.046Z,9.80
2018-12-18T11:56:57.374Z,9.60
2018-12-18T12:02:06.762Z,9.60
2018-12-18T12:07:16.310Z,10.30
2018-12-18T12:12:25.698Z,10.40
2018-12-18T12:17:35.592Z,9.90
2018-12-18T12:22:45.198Z,10.00
2018-12-18T12:28:00.280Z,9.90
2018-12-18T12:33:09.637Z,10.50
2018-12-18T12:38:19.002Z,10.80
2018-12-18T12:43:28.499Z,11.30
2018-12-18T12:48:43.277Z,10.80
2018-12-18T12:53:52.706Z,10.50
2018-12-18T12:59:02.075Z,10.40
2018-12-18T13:04:11.417Z,10.60
2018-12-18T13:09:21.189Z,10.50
2018-12-18T13:14:30.764Z,10.30
2018-12-18T13:19:40.134Z,10.10
2018-12-18T13:24:49.465Z,10.30
2018-12-18T13:29:59.168Z,9.80
2018-12-18T13:35:08.697Z,9.70
2018-12-18T13:40:18.394Z,10.00
2018-12-18T13:45:27.899Z,10.00
2018-12-18T13:50:37.231Z,9.00
2018-12-18T13:55:46.819Z,9.00
2018-12-18T14:00:56.393Z,9.00
2018-12-18T14:06:05.939Z,9.00
2018-12-18T14:11:15.483Z,8.90
2018-12-18T14:16:24.850Z,8.60
2018-12-18T14:21:34.490Z,8.70
2018-12-18T14:26:43.981Z,8.40
2018-12-18T14:31:53.333Z,8.30
2018-12-18T14:37:02.687Z,7.90
2018-12-18T14:42:12.057Z,7.70
2018-12-18T14:47:21.397Z,7.60
2018-12-18T14:52:30.897Z,7.50
2018-12-18T14:57:40.335Z,7.30
2018-12-18T15:02:49.754Z,7.30
2018-12-18T15:07:59.631Z,7.20
2018-12-18T15:13:09.266Z,9.30
2018-12-18T15:18:18.859Z,6.80
2018-12-18T15:23:28.413Z,6.70
2018-12-18T15:28:37.790Z,6.60
2018-12-18T15:33:47.150Z,6.50
2018-12-18T15:38:56.499Z,6.50
2018-12-18T15:44:06.049Z,6.40
2018-12-18T15:49:15.391Z,6.30
2018-12-18T15:54:24.770Z,6.30
2018-12-18T15:59:34.247Z,6.20
2018-12-18T16:04:43.587Z,6.20
2018-12-18T16:09:52.954Z,6.20
2018-12-18T16:15:02.360Z,6.20
2018-12-18T16:20:11.847Z,6.20
2018-12-18T16:25:21.201Z,6.20
2018-12-18T16:30:30.613Z,6.20
2018-12-18T16:35:45.959Z,6.20
2018-12-18T16:40:51.380Z,6.30
2018-12-18T16:46:00.890Z,6.30
2018-12-18T16:51:10.240Z,7.90
2018-12-18T16:56:19.615Z,8.40
2018-12-18T17:01:29.222Z,6.20
2018-12-18T17:06:38.790Z,6.20
2018-12-18T17:11:48.161Z,6.20
2018-12-18T17:16:57.687Z,6.20
2018-12-18T17:22:07.078Z,6.30
2018-12-18T17:27:16.727Z,6.20
2018-12-18T17:32:26.046Z,6.30
2018-12-18T17:37:36.324Z,6.20
2018-12-18T17:42:46.086Z,6.30
2018-12-18T17:47:55.450Z,6.20
2018-12-18T17:53:04.859Z,6.20
2018-12-18T17:58:14.223Z,6.20
2018-12-18T18:03:23.755Z,6.20
2018-12-18T18:08:33.111Z,6.20
2018-12-18T18:13:42.536Z,6.10
2018-12-18T18:18:52.038Z,6.00
2018-12-18T18:24:01.613Z,6.10
2018-12-18T18:29:11.126Z,6.10
2018-12-18T18:34:20.535Z,6.00
2018-12-18T18:39:30.038Z,6.10
2018-12-18T18:44:39.693Z,6.20
2018-12-18T18:49:49.324Z,6.10
2018-12-18T18:54:58.798Z,6.20
2018-12-18T19:00:09.198Z,6.20
2018-12-18T19:05:18.678Z,6.10
2018-12-18T19:10:28.210Z,6.20
2018-12-18T19:15:37.623Z,6.20
2018-12-18T19:20:47.010Z,6.20
2018-12-18T19:25:56.378Z,6.30
2018-12-18T19:31:05.935Z,6.30
2018-12-18T19:36:15.337Z,6.20
2018-12-18T19:41:24.846Z,6.30
2018-12-18T19:46:34.247Z,6.40
2018-12-18T19:51:43.811Z,6.50
2018-12-18T19:56:53.493Z,6.40
2018-12-18T20:02:03.095Z,6.40
2018-12-18T20:07:12.626Z,6.50
2018-12-18T20:12:22.519Z,6.50
2018-12-18T20:17:32.036Z,6.50
2018-12-18T20:22:41.484Z,6.60
2018-12-18T20:27:51.062Z,6.60
2018-12-18T20:33:00.427Z,6.60
2018-12-18T20:38:09.798Z,6.60
2018-12-18T20:43:19.254Z,6.60
2018-12-18T20:48:28.941Z,6.60
2018-12-18T20:53:38.300Z,6.70
2018-12-18T20:58:47.710Z,6.70
2018-12-18T21:03:57.099Z,6.70
2018-12-18T21:09:08.442Z,6.70
2018-12-18T21:14:17.998Z,6.70
2018-12-18T21:19:27.389Z,6.80
2018-12-18T21:24:36.830Z,6.80
2018-12-18T21:29:46.423Z,6.80
2018-12-18T21:34:56.014Z,6.80
2018-12-18T21:40:06.326Z,7.00
2018-12-18T21:45:15.714Z,6.90
2018-12-18T21:50:25.460Z,7.00
2018-12-18T21:55:34.918Z,7.00
2018-12-18T22:00:44.330Z,7.00
2018-12-18T22:05:53.884Z,7.10
2018-12-18T22:11:03.522Z,7.10
2018-12-18T22:16:12.976Z,7.10
2018-12-18T22:21:22.554Z,7.20
2018-12-18T22:26:32.063Z,7.10
2018-12-18T22:31:41.699Z,7.10
2018-12-18T22:36:51.082Z,7.10
2018-12-18T22:42:00.621Z,7.10
2018-12-18T22:47:10.086Z,7.10
2018-12-18T22:52:19.526Z,7.10
2018-12-18T22:57:29.026Z,7.10
2018-12-18T23:02:38.582Z,7.10
2018-12-18T23:07:47.940Z,7.20
2018-12-18T23:12:57.441Z,7.30
2018-12-18T23:18:06.880Z,7.20
2018-12-18T23:23:16.331Z,7.20
2018-12-18T23:28:25.878Z,7.20
2018-12-18T23:33:35.766Z,7.10
2018-12-18T23:38:45.194Z,7.10
2018-12-18T23:43:54.545Z,7.10
2018-12-18T23:49:04.102Z,7.10
2018-12-18T23:54:13.475Z,7.20
2018-12-18T23:59:23.026Z,7.20
